Veuillez saisir l'adresse e-mail associée à votre compte d'utilisateur. Votre identifiant vous sera envoyé à cette adresse.

METAR TAF

[Source: ADDS]
METAR
LFCR 011030Z AUTO 12014KT 100V160 CAVOK 11/04 Q1016 =
LFBA 011030Z AUTO 10013KT 9999 SCT037 OVC120 15/08 Q1015 =
LFSL 011030Z AUTO 10008KT 070V130 CAVOK 14/04 Q1016 =
LFLW 011030Z AUTO 14008KT 100V180 9999 ////// 11/04 Q1016 =
TAF
SR / SS: 05:34 / 18:21 UTC (LFCC 2020-04-01)